createdAt,value
2018-09-12T00:00:24.285Z,53.13
2018-09-12T00:00:56.295Z,52.91
2018-09-12T00:01:28.356Z,53.03
2018-09-12T00:02:00.457Z,53.13
2018-09-12T00:02:32.529Z,53.13
2018-09-12T00:03:04.570Z,53.03
2018-09-12T00:03:36.591Z,53.23
2018-09-12T00:04:08.629Z,53.23
2018-09-12T00:04:40.664Z,52.75
2018-09-12T00:05:12.704Z,53.42
2018-09-12T00:05:44.770Z,53.52
2018-09-12T00:06:16.802Z,52.94
2018-09-12T00:06:48.902Z,52.94
2018-09-12T00:07:21.040Z,52.94
2018-09-12T00:07:53.114Z,53.42
2018-09-12T00:08:25.167Z,53.33
2018-09-12T00:08:57.238Z,53.33
2018-09-12T00:09:29.294Z,53.33
2018-09-12T00:10:01.361Z,53.39
2018-09-12T00:10:33.425Z,53.42
2018-09-12T00:11:05.480Z,53.33
2018-09-12T00:11:37.581Z,52.91
2018-09-12T00:12:09.758Z,53.23
2018-09-12T00:12:41.806Z,53.39
2018-09-12T00:13:13.876Z,53.13
2018-09-12T00:13:45.927Z,53.33
2018-09-12T00:14:18.003Z,53.11
2018-09-12T00:14:50.042Z,53.33
2018-09-12T00:15:22.079Z,53.3
2018-09-12T00:15:54.125Z,53.13
2018-09-12T00:16:26.193Z,53.33
2018-09-12T00:16:58.236Z,53.2
2018-09-12T00:17:30.305Z,53.52
2018-09-12T00:18:02.351Z,53.01
2018-09-12T00:18:34.457Z,53.01
2018-09-12T00:19:06.493Z,53.3
2018-09-12T00:19:38.551Z,53.39
2018-09-12T00:20:10.622Z,53.42
2018-09-12T00:20:42.741Z,53.39
2018-09-12T00:21:15.017Z,53.2
2018-09-12T00:21:47.288Z,53.2
2018-09-12T00:22:19.356Z,53.39
2018-09-12T00:22:51.493Z,53.39
2018-09-12T00:23:23.625Z,53.49
2018-09-12T00:23:55.677Z,53.11
2018-09-12T00:24:27.685Z,53.49
2018-09-12T00:24:59.758Z,53.11
2018-09-12T00:25:31.810Z,53.2
2018-09-12T00:26:03.853Z,53.39
2018-09-12T00:26:35.932Z,53.49
2018-09-12T00:27:08.038Z,53.49
2018-09-12T00:27:40.118Z,53.49
2018-09-12T00:28:12.132Z,53.11
2018-09-12T00:28:44.169Z,53.11
2018-09-12T00:29:16.215Z,53.59
2018-09-12T00:29:48.202Z,53.11
2018-09-12T00:30:20.252Z,53.3
2018-09-12T00:30:52.332Z,52.91
2018-09-12T00:31:24.374Z,53.59
2018-09-12T00:31:56.421Z,53.59
2018-09-12T00:32:28.495Z,53.59
2018-09-12T00:33:00.571Z,53.39
2018-09-12T00:33:32.634Z,53.59
2018-09-12T00:34:04.714Z,53.2
2018-09-12T00:34:36.778Z,53.01
2018-09-12T00:35:08.871Z,53.3
2018-09-12T00:35:41.533Z,53.3
2018-09-12T00:36:13.620Z,53.39
2018-09-12T00:36:45.739Z,53.39
2018-09-12T00:37:17.824Z,53.59
2018-09-12T00:37:49.879Z,53.59
2018-09-12T00:38:21.951Z,53.2
2018-09-12T00:38:54.783Z,53.2
2018-09-12T00:39:26.878Z,53.39
2018-09-12T00:39:58.949Z,53.3
2018-09-12T00:40:30.997Z,53.3
2018-09-12T00:41:03.080Z,53.2
2018-09-12T00:41:35.116Z,53.3
2018-09-12T00:42:07.181Z,53.59
2018-09-12T00:42:39.226Z,53.2
2018-09-12T00:43:11.293Z,53.59
2018-09-12T00:43:43.377Z,53.3
2018-09-12T00:44:15.406Z,53.59
2018-09-12T00:44:47.459Z,53.2
2018-09-12T00:45:19.526Z,53.59
2018-09-12T00:45:51.593Z,53.49
2018-09-12T00:46:23.757Z,53.49
2018-09-12T00:46:55.860Z,53.69
2018-09-12T00:47:27.922Z,53.97
2018-09-12T00:47:59.988Z,53.39
2018-09-12T00:48:32.085Z,53.59
2018-09-12T00:49:04.200Z,53.97
2018-09-12T00:49:36.288Z,53.3
2018-09-12T00:50:08.349Z,53.97
2018-09-12T00:50:40.386Z,53.78
2018-09-12T00:51:12.458Z,53.39
2018-09-12T00:51:44.476Z,53.49
2018-09-12T00:52:16.525Z,53.88
2018-09-12T00:52:48.550Z,53.78
2018-09-12T00:53:20.594Z,53.97
2018-09-12T00:53:52.673Z,53.97
2018-09-12T00:54:24.717Z,53.59
2018-09-12T00:54:56.805Z,54.07
2018-09-12T00:55:28.960Z,54.07
2018-09-12T00:56:00.977Z,53.78
2018-09-12T00:56:33.058Z,54.07
2018-09-12T00:57:05.085Z,53.78
2018-09-12T00:57:37.143Z,53.59
2018-09-12T00:58:09.216Z,54.07
2018-09-12T00:58:41.265Z,54.07
2018-09-12T00:59:13.352Z,53.59
2018-09-12T00:59:46.036Z,54.07
2018-09-12T01:00:18.108Z,54.07
2018-09-12T01:00:50.194Z,53.97
2018-09-12T01:01:22.228Z,53.69
2018-09-12T01:01:54.291Z,53.78
2018-09-12T01:02:26.355Z,53.69
2018-09-12T01:02:58.411Z,53.78
2018-09-12T01:03:30.461Z,54.27
2018-09-12T01:04:02.598Z,53.78
2018-09-12T01:04:34.686Z,53.97
2018-09-12T01:05:06.745Z,53.69
2018-09-12T01:05:38.799Z,53.97
2018-09-12T01:06:10.866Z,53.59
2018-09-12T01:06:42.944Z,54.07
2018-09-12T01:07:15.025Z,53.59
2018-09-12T01:07:47.046Z,54.17
2018-09-12T01:08:19.165Z,54.17
2018-09-12T01:08:51.240Z,54.17
2018-09-12T01:09:23.290Z,54.17
2018-09-12T01:09:55.300Z,53.69
2018-09-12T01:10:27.324Z,54.17
2018-09-12T01:10:59.439Z,54.27
2018-09-12T01:11:31.517Z,54.27
2018-09-12T01:12:03.580Z,53.69
2018-09-12T01:12:35.625Z,54.27
2018-09-12T01:13:07.700Z,54.27
2018-09-12T01:13:39.733Z,54.17
2018-09-12T01:14:11.768Z,54.17
2018-09-12T01:14:43.850Z,54.27
2018-09-12T01:15:15.906Z,54.17
2018-09-12T01:15:47.953Z,53.88
2018-09-12T01:16:20.010Z,53.78
2018-09-12T01:16:52.077Z,53.88
2018-09-12T01:17:24.119Z,53.39
2018-09-12T01:17:56.169Z,54.07
2018-09-12T01:18:28.205Z,53.97
2018-09-12T01:19:00.248Z,53.97
2018-09-12T01:19:32.309Z,53.97
2018-09-12T01:20:04.369Z,53.97
2018-09-12T01:20:36.446Z,53.59
2018-09-12T01:21:08.467Z,53.49
2018-09-12T01:21:40.593Z,53.97
2018-09-12T01:22:12.659Z,54.07
2018-09-12T01:22:44.731Z,54.07
2018-09-12T01:23:16.798Z,54.07
2018-09-12T01:23:48.853Z,54.07
2018-09-12T01:24:20.916Z,54.17
2018-09-12T01:24:52.975Z,53.97
2018-09-12T01:25:25.081Z,54.17
2018-09-12T01:25:57.163Z,54.07
2018-09-12T01:26:29.244Z,53.78
2018-09-12T01:27:01.289Z,53.97
2018-09-12T01:27:33.296Z,54.07
2018-09-12T01:28:05.457Z,54.17
2018-09-12T01:28:37.501Z,54.07
2018-09-12T01:29:09.578Z,53.88
2018-09-12T01:29:41.630Z,53.88
2018-09-12T01:30:13.682Z,54.07
2018-09-12T01:30:45.840Z,53.88
2018-09-12T01:31:17.963Z,53.88
2018-09-12T01:31:50.731Z,54.27
2018-09-12T01:32:22.887Z,54.07
2018-09-12T01:32:54.946Z,53.88
2018-09-12T01:33:27.014Z,53.97
2018-09-12T01:33:59.050Z,53.88
2018-09-12T01:34:31.086Z,53.97
2018-09-12T01:35:03.976Z,53.97
2018-09-12T01:35:36.043Z,53.97
2018-09-12T01:36:08.105Z,53.69
2018-09-12T01:36:40.117Z,53.88
2018-09-12T01:37:12.173Z,54.27
2018-09-12T01:37:44.254Z,54.07
2018-09-12T01:38:16.355Z,53.78
2018-09-12T01:38:48.491Z,53.78
2018-09-12T01:39:20.555Z,53.88
2018-09-12T01:39:52.637Z,53.88
2018-09-12T01:40:24.728Z,54.36
2018-09-12T01:40:56.920Z,54.27
2018-09-12T01:41:29.002Z,54.17
2018-09-12T01:42:01.028Z,54.27
2018-09-12T01:42:33.093Z,53.97
2018-09-12T01:43:05.168Z,54.27
2018-09-12T01:43:37.192Z,53.88
2018-09-12T01:44:09.198Z,54.27
2018-09-12T01:44:41.276Z,54.27
2018-09-12T01:45:13.348Z,54.27
2018-09-12T01:45:45.401Z,54.27
2018-09-12T01:46:17.411Z,54.36
2018-09-12T01:46:49.468Z,54.07
2018-09-12T01:47:21.607Z,53.88
2018-09-12T01:47:53.711Z,53.97
2018-09-12T01:48:26.222Z,54.07
2018-09-12T01:48:58.265Z,53.88
2018-09-12T01:49:30.310Z,53.88
2018-09-12T01:50:02.501Z,54.07
2018-09-12T01:50:34.552Z,54.07
2018-09-12T01:51:06.662Z,54.36
2018-09-12T01:51:38.734Z,54.07
2018-09-12T01:52:10.807Z,54.36
2018-09-12T01:52:42.849Z,54.07
2018-09-12T01:53:14.859Z,53.78
2018-09-12T01:53:46.981Z,54.36
2018-09-12T01:54:19.039Z,54.17
2018-09-12T01:54:51.121Z,53.88
2018-09-12T01:55:23.181Z,54.27
2018-09-12T01:55:55.246Z,54.07
2018-09-12T01:56:27.378Z,53.97
2018-09-12T01:56:59.487Z,54.36
2018-09-12T01:57:31.571Z,54.27
2018-09-12T01:58:03.593Z,54.27
2018-09-12T01:58:35.652Z,54.07
2018-09-12T01:59:07.701Z,53.88
2018-09-12T01:59:39.747Z,54.17
2018-09-12T02:00:11.769Z,54.17
2018-09-12T02:00:43.849Z,54.46
2018-09-12T02:01:15.910Z,54.17
2018-09-12T02:01:47.977Z,54.36
2018-09-12T02:02:20.030Z,54.36
2018-09-12T02:02:52.080Z,54.46
2018-09-12T02:03:24.226Z,54.27
2018-09-12T02:03:56.252Z,54.36
2018-09-12T02:04:28.323Z,54.36
2018-09-12T02:05:00.404Z,54.36
2018-09-12T02:05:32.461Z,54.36
2018-09-12T02:06:04.524Z,54.36
2018-09-12T02:06:36.530Z,54.17
2018-09-12T02:07:08.537Z,54.36
2018-09-12T02:07:40.621Z,53.95
2018-09-12T02:08:12.667Z,54.14
2018-09-12T02:08:44.723Z,54.24
2018-09-12T02:09:16.730Z,53.97
2018-09-12T02:09:48.785Z,54.07
2018-09-12T02:10:20.831Z,54.43
2018-09-12T02:10:52.852Z,54.14
2018-09-12T02:11:25.578Z,54.36
2018-09-12T02:11:57.685Z,54.36
2018-09-12T02:12:29.721Z,53.95
2018-09-12T02:13:01.742Z,54.17
2018-09-12T02:13:33.802Z,54.53
2018-09-12T02:14:05.923Z,54.53
2018-09-12T02:14:38.011Z,53.88
2018-09-12T02:15:10.078Z,53.78
2018-09-12T02:15:42.127Z,53.66
2018-09-12T02:16:14.212Z,54.55
2018-09-12T02:16:46.253Z,54.14
2018-09-12T02:17:18.302Z,53.75
2018-09-12T02:17:50.504Z,54.55
2018-09-12T02:18:22.595Z,54.36
2018-09-12T02:18:54.678Z,53.85
2018-09-12T02:19:26.747Z,54.55
2018-09-12T02:19:58.819Z,54.33
2018-09-12T02:20:30.868Z,54.46
2018-09-12T02:21:02.908Z,54.53
2018-09-12T02:21:34.968Z,54.27
2018-09-12T02:22:07.048Z,53.95
2018-09-12T02:22:39.063Z,54.36
2018-09-12T02:23:11.147Z,54.55
2018-09-12T02:23:43.203Z,54.43
2018-09-12T02:24:15.286Z,54.14
2018-09-12T02:24:47.327Z,54.62
2018-09-12T02:25:20.106Z,54.14
2018-09-12T02:25:52.168Z,54.62
2018-09-12T02:26:24.289Z,54.82
2018-09-12T02:26:56.357Z,54.43
2018-09-12T02:27:28.422Z,54.84
2018-09-12T02:28:00.469Z,54.72
2018-09-12T02:28:32.553Z,54.72
2018-09-12T02:29:04.571Z,54.43
2018-09-12T02:29:36.590Z,54.62
2018-09-12T02:30:09.193Z,54.05
2018-09-12T02:30:41.258Z,54.14
2018-09-12T02:31:13.392Z,54.62
2018-09-12T02:31:45.429Z,54.62
2018-09-12T02:32:17.507Z,54.14
2018-09-12T02:32:49.575Z,54.05
2018-09-12T02:33:22.518Z,54.33
2018-09-12T02:33:54.614Z,54.05
2018-09-12T02:34:26.666Z,54.53
2018-09-12T02:34:58.838Z,54.53
2018-09-12T02:35:30.880Z,54.62
2018-09-12T02:36:02.929Z,54.24
2018-09-12T02:36:35.003Z,54.53
2018-09-12T02:37:07.093Z,54.53
2018-09-12T02:37:39.193Z,54.62
2018-09-12T02:38:11.241Z,54.72
2018-09-12T02:38:43.296Z,54.62
2018-09-12T02:39:15.343Z,54.72
2018-09-12T02:39:47.453Z,54.62
2018-09-12T02:40:19.524Z,54.24
2018-09-12T02:40:51.565Z,54.53
2018-09-12T02:41:23.643Z,54.14
2018-09-12T02:41:55.784Z,54.14
2018-09-12T02:42:27.862Z,54.24
2018-09-12T02:42:59.869Z,54.36
2018-09-12T02:43:31.942Z,54.24
2018-09-12T02:44:03.983Z,54.14
2018-09-12T02:44:36.156Z,54.62
2018-09-12T02:45:08.232Z,54.24
2018-09-12T02:45:40.280Z,54.72
2018-09-12T02:46:12.312Z,54.24
2018-09-12T02:46:44.376Z,54.72
2018-09-12T02:47:16.461Z,54.91
2018-09-12T02:47:48.505Z,54.91
2018-09-12T02:48:20.570Z,54.33
2018-09-12T02:48:52.636Z,54.33
2018-09-12T02:49:24.689Z,54.82
2018-09-12T02:49:56.748Z,54.82
2018-09-12T02:50:28.790Z,54.33
2018-09-12T02:51:00.862Z,54.82
2018-09-12T02:51:32.908Z,54.82
2018-09-12T02:52:04.987Z,54.82
2018-09-12T02:52:37.030Z,54.82
2018-09-12T02:53:09.086Z,54.82
2018-09-12T02:53:41.164Z,54.36
2018-09-12T02:54:13.219Z,54.82
2018-09-12T02:54:45.271Z,54.82
2018-09-12T02:55:17.400Z,54.72
2018-09-12T02:55:49.454Z,54.33
2018-09-12T02:56:21.507Z,54.82
2018-09-12T02:56:53.550Z,54.82
2018-09-12T02:57:25.661Z,54.53
2018-09-12T02:57:57.700Z,54.72
2018-09-12T02:58:29.732Z,54.82
2018-09-12T02:59:01.790Z,54.82
2018-09-12T02:59:33.913Z,54.62
2018-09-12T03:00:06.812Z,54.91
2018-09-12T03:00:38.896Z,54.82
2018-09-12T03:01:11.037Z,54.82
2018-09-12T03:01:43.223Z,54.33
2018-09-12T03:02:15.298Z,54.53
2018-09-12T03:02:47.352Z,54.82
2018-09-12T03:03:19.392Z,54.82
2018-09-12T03:03:51.453Z,54.53
2018-09-12T03:04:23.548Z,54.72
2018-09-12T03:04:55.538Z,54.91
2018-09-12T03:05:27.616Z,54.82
2018-09-12T03:05:59.737Z,54.53
2018-09-12T03:06:31.789Z,54.53
2018-09-12T03:07:03.827Z,54.82
2018-09-12T03:07:35.871Z,54.82
2018-09-12T03:08:07.922Z,54.91
2018-09-12T03:08:40.782Z,55.1
2018-09-12T03:09:12.869Z,54.82
2018-09-12T03:09:45.026Z,55.01
2018-09-12T03:10:17.098Z,55.01
2018-09-12T03:10:49.178Z,55.1
2018-09-12T03:11:21.264Z,54.33
2018-09-12T03:11:53.337Z,55.1
2018-09-12T03:12:25.403Z,55.01
2018-09-12T03:12:57.496Z,55.1
2018-09-12T03:13:29.582Z,54.43
2018-09-12T03:14:01.630Z,54.62
2018-09-12T03:14:33.707Z,55.01
2018-09-12T03:15:05.868Z,55.01
2018-09-12T03:15:37.944Z,55.01
2018-09-12T03:16:10.003Z,54.72
2018-09-12T03:16:42.055Z,55.01
2018-09-12T03:17:14.128Z,54.82
2018-09-12T03:17:46.152Z,54.72
2018-09-12T03:18:18.203Z,54.82
2018-09-12T03:18:50.243Z,55.1
2018-09-12T03:19:22.319Z,55.1
2018-09-12T03:19:54.396Z,55.2
2018-09-12T03:20:26.485Z,55.2
2018-09-12T03:20:58.688Z,54.82
2018-09-12T03:21:30.659Z,55.2
2018-09-12T03:22:02.715Z,54.82
2018-09-12T03:22:34.772Z,54.62
2018-09-12T03:23:06.847Z,54.72
2018-09-12T03:23:38.922Z,54.72
2018-09-12T03:24:11.046Z,55.3
2018-09-12T03:24:43.104Z,55.2
2018-09-12T03:25:15.157Z,54.72
2018-09-12T03:25:47.217Z,55.1
2018-09-12T03:26:19.226Z,54.53
2018-09-12T03:26:51.272Z,54.72
2018-09-12T03:27:23.282Z,54.72
2018-09-12T03:27:56.124Z,55.01
2018-09-12T03:28:28.154Z,54.53
2018-09-12T03:29:00.272Z,55.1
2018-09-12T03:29:32.316Z,54.82
2018-09-12T03:30:04.341Z,54.62
2018-09-12T03:30:36.387Z,54.72
2018-09-12T03:31:08.458Z,55.1
2018-09-12T03:31:40.531Z,54.62
2018-09-12T03:32:12.607Z,55.4
2018-09-12T03:32:44.677Z,55.2
2018-09-12T03:33:16.744Z,54.72
2018-09-12T03:33:48.801Z,55.3
2018-09-12T03:34:20.843Z,54.72
2018-09-12T03:34:52.882Z,54.72
2018-09-12T03:35:24.937Z,55.2
2018-09-12T03:35:57.008Z,54.72
2018-09-12T03:36:29.043Z,54.72
2018-09-12T03:37:01.084Z,55.59
2018-09-12T03:37:33.179Z,55.78
2018-09-12T03:38:05.328Z,54.91
2018-09-12T03:38:37.371Z,55.1
2018-09-12T03:39:09.447Z,55.4
2018-09-12T03:39:41.516Z,55.78
2018-09-12T03:40:13.613Z,55.1
2018-09-12T03:40:45.672Z,54.91
2018-09-12T03:41:17.712Z,55.68
2018-09-12T03:41:49.747Z,54.91
2018-09-12T03:42:21.944Z,55.49
2018-09-12T03:42:53.970Z,55.49
2018-09-12T03:43:26.014Z,55.49
2018-09-12T03:43:58.073Z,55.49
2018-09-12T03:44:30.151Z,55.49
2018-09-12T03:45:02.207Z,55.49
2018-09-12T03:45:34.259Z,55.49
2018-09-12T03:46:06.335Z,55.49
2018-09-12T03:46:38.381Z,55.01
2018-09-12T03:47:10.563Z,55.49
2018-09-12T03:47:42.648Z,55.59
2018-09-12T03:48:14.716Z,54.82
2018-09-12T03:48:46.770Z,55.4
2018-09-12T03:49:18.913Z,54.91
2018-09-12T03:49:51.123Z,55.49
2018-09-12T03:50:23.171Z,54.91
2018-09-12T03:50:55.233Z,54.91
2018-09-12T03:51:27.258Z,54.91
2018-09-12T03:51:59.322Z,54.82
2018-09-12T03:52:31.473Z,55.4
2018-09-12T03:53:03.548Z,55.1
2018-09-12T03:53:35.615Z,55.1
2018-09-12T03:54:07.688Z,55.4
2018-09-12T03:54:39.807Z,54.82
2018-09-12T03:55:11.928Z,55.4
2018-09-12T03:55:43.949Z,55.3
2018-09-12T03:56:16.004Z,55.4
2018-09-12T03:56:48.078Z,55.4
2018-09-12T03:57:20.073Z,55.4
2018-09-12T03:57:52.112Z,55.49
2018-09-12T03:58:24.206Z,55.4
2018-09-12T03:58:56.267Z,55.1
2018-09-12T03:59:28.352Z,55.1
2018-09-12T04:00:00.409Z,56.07
2018-09-12T04:00:32.503Z,55.4
2018-09-12T04:01:04.543Z,55.49
2018-09-12T04:01:36.698Z,56.16
2018-09-12T04:02:08.767Z,54.91
2018-09-12T04:02:40.856Z,54.91
2018-09-12T04:03:12.977Z,56.16
2018-09-12T04:03:45.034Z,55.98
2018-09-12T04:04:17.180Z,55.2
2018-09-12T04:04:49.297Z,55.88
2018-09-12T04:05:21.525Z,54.91
2018-09-12T04:05:53.656Z,55.1
2018-09-12T04:06:25.682Z,55.78
2018-09-12T04:06:57.722Z,55.88
2018-09-12T04:07:29.801Z,55.01
2018-09-12T04:08:01.884Z,54.91
2018-09-12T04:08:34.013Z,55.98
2018-09-12T04:09:06.055Z,55.78
2018-09-12T04:09:38.085Z,55.1
2018-09-12T04:10:10.177Z,55.3
2018-09-12T04:10:42.208Z,55.1
2018-09-12T04:11:14.240Z,55.1
2018-09-12T04:11:46.383Z,55.2
2018-09-12T04:12:18.532Z,55.88
2018-09-12T04:12:50.546Z,55.1
2018-09-12T04:13:22.612Z,55.3
2018-09-12T04:13:54.692Z,55.78
2018-09-12T04:14:26.745Z,55.68
2018-09-12T04:14:58.789Z,55.78
2018-09-12T04:15:30.815Z,55.3
2018-09-12T04:16:02.876Z,55.78
2018-09-12T04:16:35.032Z,55.59
2018-09-12T04:17:07.107Z,55.4
2018-09-12T04:17:39.169Z,55.4
2018-09-12T04:18:11.230Z,55.4
2018-09-12T04:18:43.296Z,55.2
2018-09-12T04:19:15.416Z,55.4
2018-09-12T04:19:48.409Z,55.49
2018-09-12T04:20:20.495Z,55.59
2018-09-12T04:20:52.534Z,55.59
2018-09-12T04:21:24.689Z,55.68
2018-09-12T04:21:56.728Z,55.2
2018-09-12T04:22:28.790Z,55.4
2018-09-12T04:23:00.853Z,55.3
2018-09-12T04:23:32.906Z,55.59
2018-09-12T04:24:04.984Z,55.49
2018-09-12T04:24:37.054Z,55.3
2018-09-12T04:25:09.076Z,55.59
2018-09-12T04:25:41.152Z,55.3
2018-09-12T04:26:13.228Z,55.1
2018-09-12T04:26:45.274Z,55.2
2018-09-12T04:27:17.319Z,55.4
2018-09-12T04:27:49.418Z,55.59
2018-09-12T04:28:21.512Z,55.4
2018-09-12T04:28:53.555Z,55.49
2018-09-12T04:29:25.616Z,55.4
2018-09-12T04:29:57.680Z,55.2
2018-09-12T04:30:29.773Z,55.4
2018-09-12T04:31:01.847Z,55.49
2018-09-12T04:31:33.908Z,55.3
2018-09-12T04:32:05.942Z,55.01
2018-09-12T04:32:37.981Z,55.01
2018-09-12T04:33:10.041Z,55.49
2018-09-12T04:33:42.092Z,55.59
2018-09-12T04:34:14.219Z,55.59
2018-09-12T04:34:46.274Z,54.91
2018-09-12T04:35:18.348Z,55.4
2018-09-12T04:35:50.369Z,55.49
2018-09-12T04:36:22.446Z,55.98
2018-09-12T04:36:54.526Z,55.78
2018-09-12T04:37:26.551Z,55.59
2018-09-12T04:37:58.639Z,55.68
2018-09-12T04:38:30.759Z,55.68
2018-09-12T04:39:02.775Z,55.59
2018-09-12T04:39:34.798Z,55.01
2018-09-12T04:40:06.864Z,56.07
2018-09-12T04:40:38.969Z,54.91
2018-09-12T04:41:11.020Z,56.16
2018-09-12T04:41:43.078Z,55.88
2018-09-12T04:42:15.117Z,54.82
2018-09-12T04:42:47.258Z,55.78
2018-09-12T04:43:19.245Z,55.88
2018-09-12T04:43:51.255Z,55.68
2018-09-12T04:44:23.295Z,55.68
2018-09-12T04:44:55.364Z,55.01
2018-09-12T04:45:27.543Z,55.78
2018-09-12T04:45:59.589Z,55.1
2018-09-12T04:46:31.632Z,55.3
2018-09-12T04:47:03.650Z,55.68
2018-09-12T04:47:35.791Z,55.59
2018-09-12T04:48:08.576Z,55.59
2018-09-12T04:48:40.615Z,55.49
2018-09-12T04:49:12.676Z,55.78
2018-09-12T04:49:45.275Z,55.68
2018-09-12T04:50:17.328Z,55.68
2018-09-12T04:50:49.489Z,55.59
2018-09-12T04:51:21.605Z,55.59
2018-09-12T04:51:53.768Z,55.68
2018-09-12T04:52:25.809Z,55.68
2018-09-12T04:52:57.854Z,55.59
2018-09-12T04:53:29.872Z,55.49
2018-09-12T04:54:01.985Z,55.49
2018-09-12T04:54:34.012Z,55.59
2018-09-12T04:55:06.086Z,55.49
2018-09-12T04:55:38.131Z,55.68
2018-09-12T04:56:10.195Z,55.78
2018-09-12T04:56:42.234Z,55.98
2018-09-12T04:57:14.315Z,55.68
2018-09-12T04:57:46.479Z,55.49
2018-09-12T04:58:18.497Z,55.49
2018-09-12T04:58:50.616Z,55.88
2018-09-12T04:59:22.687Z,55.68
2018-09-12T04:59:54.737Z,55.98
2018-09-12T05:00:26.772Z,55.49
2018-09-12T05:00:58.856Z,55.59
2018-09-12T05:01:30.888Z,55.49
2018-09-12T05:02:02.953Z,55.59
2018-09-12T05:02:34.994Z,55.68
2018-09-12T05:03:07.038Z,55.88
2018-09-12T05:03:39.112Z,55.68
2018-09-12T05:04:11.171Z,55.59
2018-09-12T05:04:43.241Z,55.98
2018-09-12T05:05:15.309Z,55.59
2018-09-12T05:05:47.380Z,55.68
2018-09-12T05:06:19.427Z,55.49
2018-09-12T05:06:51.554Z,55.98
2018-09-12T05:07:23.611Z,55.49
2018-09-12T05:07:55.651Z,55.59
2018-09-12T05:08:27.688Z,55.4
2018-09-12T05:09:00.433Z,55.68
2018-09-12T05:09:32.520Z,55.88
2018-09-12T05:10:04.661Z,55.88
2018-09-12T05:10:36.741Z,55.68
2018-09-12T05:11:08.806Z,55.88
2018-09-12T05:11:40.861Z,55.88
2018-09-12T05:12:12.916Z,55.78
2018-09-12T05:12:44.963Z,55.68
2018-09-12T05:13:17.010Z,55.68
2018-09-12T05:13:49.047Z,55.88
2018-09-12T05:14:21.126Z,55.68
2018-09-12T05:18:36.787Z,55.49
2018-09-12T05:19:08.834Z,55.49
2018-09-12T05:19:40.868Z,55.68
2018-09-12T05:20:12.923Z,55.68
2018-09-12T05:20:44.984Z,55.68
2018-09-12T05:21:17.027Z,55.68
2018-09-12T05:21:49.079Z,55.59
2018-09-12T05:22:21.154Z,55.68
2018-09-12T05:22:53.293Z,55.98
2018-09-12T05:23:25.344Z,55.59
2018-09-12T05:23:57.412Z,55.59
2018-09-12T05:24:29.571Z,56.07
2018-09-12T05:25:01.656Z,55.98
2018-09-12T05:25:33.855Z,55.78
2018-09-12T05:26:05.962Z,55.59
2018-09-12T05:26:38.055Z,55.88
2018-09-12T05:27:10.113Z,55.98
2018-09-12T05:27:42.178Z,55.49
2018-09-12T05:28:14.347Z,55.88
2018-09-12T05:28:46.410Z,55.49
2018-09-12T05:29:18.611Z,55.49
2018-09-12T05:29:50.638Z,55.49
2018-09-12T05:30:22.698Z,56.07
2018-09-12T05:30:54.713Z,55.49
2018-09-12T05:31:26.860Z,55.3
2018-09-12T05:31:58.898Z,55.68
2018-09-12T05:32:30.967Z,55.98
2018-09-12T05:33:03.060Z,55.78
2018-09-12T05:33:35.092Z,55.59
2018-09-12T05:34:07.137Z,55.78
2018-09-12T05:34:39.221Z,55.49
2018-09-12T05:35:11.275Z,55.78
2018-09-12T05:35:43.453Z,55.59
2018-09-12T05:36:15.645Z,55.78
2018-09-12T05:36:47.760Z,55.88
2018-09-12T05:37:19.903Z,55.88
2018-09-12T05:37:51.955Z,56.26
2018-09-12T05:38:23.993Z,56.07
2018-09-12T05:38:56.030Z,55.49
2018-09-12T05:39:28.141Z,55.49
2018-09-12T05:40:00.129Z,55.98
2018-09-12T05:40:32.157Z,55.49
2018-09-12T05:41:04.207Z,55.49
2018-09-12T05:41:36.263Z,56.36
2018-09-12T05:42:08.326Z,56.16
2018-09-12T05:42:40.396Z,56.26
2018-09-12T05:43:12.510Z,55.88
2018-09-12T05:43:44.481Z,56.46
2018-09-12T05:44:16.536Z,56.07
2018-09-12T05:44:48.615Z,56.16
2018-09-12T05:45:21.221Z,56.26
2018-09-12T05:45:53.227Z,56.16
2018-09-12T05:46:25.244Z,55.98
2018-09-12T05:46:57.246Z,56.36
2018-09-12T05:47:29.288Z,56.36
2018-09-12T05:48:01.333Z,56.36
2018-09-12T05:48:33.347Z,55.88
2018-09-12T05:49:06.229Z,56.26
2018-09-12T05:49:38.784Z,55.68
2018-09-12T05:50:11.297Z,56.26
2018-09-12T05:50:43.793Z,56.26
2018-09-12T05:51:16.096Z,55.88
2018-09-12T05:51:48.954Z,55.68
2018-09-12T05:52:23.166Z,56.16
2018-09-12T05:52:57.688Z,55.88
2018-09-12T05:53:30.812Z,56.07
2018-09-12T05:54:02.902Z,56.36
2018-09-12T05:54:34.949Z,55.98
2018-09-12T05:55:07.011Z,55.78
2018-09-12T05:55:39.161Z,56.36
2018-09-12T05:56:11.372Z,56.56
2018-09-12T05:56:43.503Z,55.68
2018-09-12T05:57:15.505Z,55.88
2018-09-12T05:57:47.544Z,56.56
2018-09-12T05:58:19.588Z,56.65
2018-09-12T05:58:51.665Z,56.65
2018-09-12T05:59:23.722Z,56.16
2018-09-12T05:59:55.759Z,56.65
2018-09-12T06:00:27.804Z,56.65
2018-09-12T06:00:59.827Z,56.46
2018-09-12T06:01:31.907Z,55.98
2018-09-12T06:02:03.942Z,55.88
2018-09-12T06:02:35.989Z,56.74
2018-09-12T06:03:08.063Z,55.88
2018-09-12T06:03:40.095Z,56.07
2018-09-12T06:04:12.155Z,56.74
2018-09-12T06:04:44.228Z,56.65
2018-09-12T06:05:16.290Z,56.07
2018-09-12T06:05:48.376Z,56.07
2018-09-12T06:06:20.542Z,55.98
2018-09-12T06:06:52.742Z,56.07
2018-09-12T06:07:24.928Z,56.16
2018-09-12T06:07:57.040Z,55.78
2018-09-12T06:08:29.037Z,56.07
2018-09-12T06:09:01.052Z,56.07
2018-09-12T06:09:33.111Z,56.36
2018-09-12T06:10:05.243Z,55.98
2018-09-12T06:10:37.385Z,56.16
2018-09-12T06:11:09.582Z,56.07
2018-09-12T06:11:41.812Z,55.88
2018-09-12T06:12:13.998Z,56.07
2018-09-12T06:12:46.054Z,55.78
2018-09-12T06:13:18.082Z,55.88
2018-09-12T06:13:50.209Z,56.16
2018-09-12T06:14:22.497Z,55.98
2018-09-12T06:14:54.563Z,56.07
2018-09-12T06:15:26.615Z,56.07
2018-09-12T06:15:58.727Z,56.07
2018-09-12T06:16:30.771Z,56.07
2018-09-12T06:17:02.798Z,55.78
2018-09-12T06:17:34.860Z,55.98
2018-09-12T06:18:07.037Z,56.16
2018-09-12T06:18:39.048Z,56.16
2018-09-12T06:19:11.100Z,56.07
2018-09-12T06:19:43.167Z,55.98
2018-09-12T06:20:15.206Z,55.78
2018-09-12T06:20:47.904Z,56.36
2018-09-12T06:21:19.970Z,56.26
2018-09-12T06:21:52.048Z,55.98
2018-09-12T06:22:24.105Z,55.78
2018-09-12T06:22:56.165Z,56.07
2018-09-12T06:23:28.287Z,55.98
2018-09-12T06:24:00.329Z,56.46
2018-09-12T06:24:32.393Z,56.26
2018-09-12T06:25:04.459Z,55.98
2018-09-12T06:25:36.485Z,56.36
2018-09-12T06:26:08.532Z,56.65
2018-09-12T06:26:40.579Z,56.26
2018-09-12T06:27:12.662Z,56.46
2018-09-12T06:27:44.728Z,56.36
2018-09-12T06:28:16.977Z,56.07
2018-09-12T06:28:49.502Z,56.46
2018-09-12T06:29:21.569Z,56.07
2018-09-12T06:29:53.642Z,56.16
2018-09-12T06:30:25.749Z,56.56
2018-09-12T06:30:57.888Z,56.26
2018-09-12T06:31:30.010Z,55.98
2018-09-12T06:32:02.089Z,56.46
2018-09-12T06:32:34.158Z,56.36
2018-09-12T06:33:06.170Z,56.65
2018-09-12T06:33:38.241Z,56.36
2018-09-12T06:34:10.439Z,56.56
2018-09-12T06:34:42.701Z,56.65
2018-09-12T06:35:14.733Z,56.07
2018-09-12T06:35:46.791Z,56.36
2018-09-12T06:36:19.126Z,56.26
2018-09-12T06:36:51.198Z,56.56
2018-09-12T06:37:23.304Z,56.29
2018-09-12T06:37:55.447Z,56.26
2018-09-12T06:38:27.656Z,56.26
2018-09-12T06:38:59.926Z,55.88
2018-09-12T06:39:32.195Z,56.36
2018-09-12T06:40:04.315Z,56.26
2018-09-12T06:40:36.558Z,56.36
2018-09-12T06:41:08.650Z,56.65
2018-09-12T06:41:40.786Z,56.39
2018-09-12T06:42:12.880Z,56.26
2018-09-12T06:42:45.059Z,56.56
2018-09-12T06:43:17.308Z,56.46
2018-09-12T06:43:49.435Z,56.46
2018-09-12T06:44:21.583Z,56.65
2018-09-12T06:44:53.761Z,56.74
2018-09-12T06:45:25.822Z,56.77
2018-09-12T06:45:57.974Z,56.77
2018-09-12T06:46:30.008Z,56.16
2018-09-12T06:47:02.155Z,56.26
2018-09-12T06:47:34.307Z,56.65
2018-09-12T06:48:06.556Z,56.48
2018-09-12T06:48:38.631Z,56.68
2018-09-12T06:49:10.701Z,56.58
2018-09-12T06:49:42.807Z,56.26
2018-09-12T06:50:14.886Z,56.48
2018-09-12T06:50:47.079Z,56.48
2018-09-12T06:51:19.191Z,56.68
2018-09-12T06:51:51.234Z,56.48
2018-09-12T06:52:23.426Z,56.68
2018-09-12T06:52:55.629Z,56.77
2018-09-12T06:53:27.703Z,56.77
2018-09-12T06:53:59.739Z,56.29
2018-09-12T06:54:31.840Z,56.96
2018-09-12T06:55:04.017Z,56.29
2018-09-12T06:55:36.078Z,56.68
2018-09-12T06:56:08.221Z,56.77
2018-09-12T06:56:40.311Z,56.68
2018-09-12T06:57:13.251Z,56.68
2018-09-12T06:57:45.564Z,56.77
2018-09-12T06:58:17.633Z,56.68
2018-09-12T06:58:49.697Z,56.58